Time;durP1;ratioP1;P1;durP2;ratioP2;P2;SDS_P1;SDS_P2;PMS_P1;PMS_P2;Temp;Humidity;BMP_temperature;BMP_pressure;BME280_temperature;BME280_humidity;BME280_pressure;Samples;Min_cycle;Max_cycle;Signal;HPM_P1;HPM_P2
2022/06/10 00:00:28;;;;;;;3.97;2.75;;;486.70;2380.80;;;;;;4969104;28;20086;-55
2022/06/10 00:02:54;;;;;;;3.65;2.38;;;486.80;2380.80;;;;;;4968982;28;20134;-55
2022/06/10 00:05:24;;;;;;;3.17;2.20;;;486.80;2380.80;;;;;;4968750;28;20493;-55
2022/06/10 00:07:51;;;;;;;3.83;2.60;;;486.80;2380.80;;;;;;4968797;28;20573;-56
2022/06/10 00:10:19;;;;;;;3.72;2.28;;;486.80;2380.80;;;;;;4968885;28;20119;-55
2022/06/10 00:12:46;;;;;;;3.00;2.10;;;486.50;2380.80;;;;;;4969004;28;20122;-55
2022/06/10 00:15:12;;;;;;;4.97;2.40;;;486.80;2380.80;;;;;;4968795;28;20041;-55
2022/06/10 00:17:38;;;;;;;4.18;2.70;;;486.80;2380.80;;;;;;4968950;28;20130;-56
2022/06/10 00:20:05;;;;;;;4.53;2.50;;;486.80;2380.80;;;;;;5022070;28;20037;-56
2022/06/10 00:22:31;;;;;;;3.47;2.13;;;486.80;2380.80;;;;;;5069318;28;20052;-54
2022/06/10 00:24:57;;;;;;;4.40;2.42;;;486.70;2380.80;;;;;;5069654;28;20027;-55
2022/06/10 00:27:23;;;;;;;6.47;2.38;;;486.80;2380.80;;;;;;5069136;28;20115;-55
2022/06/10 00:29:48;;;;;;;5.10;2.63;;;486.80;2380.80;;;;;;5069561;28;20111;-55
2022/06/10 00:32:15;;;;;;;3.33;2.40;;;486.60;2380.80;;;;;;5069579;28;20364;-55
2022/06/10 00:34:41;;;;;;;4.28;2.58;;;486.50;2380.80;;;;;;5069194;28;20024;-56
2022/06/10 00:37:07;;;;;;;4.57;3.17;;;486.60;2380.80;;;;;;5069885;28;20055;-56
2022/06/10 00:39:34;;;;;;;4.03;2.50;;;486.60;2380.80;;;;;;5072837;28;20013;-56
2022/06/10 00:42:01;;;;;;;5.85;2.92;;;486.70;2380.80;;;;;;5072752;28;20040;-56
2022/06/10 00:44:36;;;;;;;4.68;2.83;;;486.70;2380.80;;;;;;5072907;28;20424;-55
2022/06/10 00:47:05;;;;;;;4.35;2.90;;;486.60;2380.80;;;;;;5072743;28;20020;-55
2022/06/10 00:49:31;;;;;;;4.75;3.40;;;486.60;2380.80;;;;;;5072898;28;20021;-56
2022/06/10 00:51:58;;;;;;;5.30;2.92;;;486.60;2380.80;;;;;;5072929;28;20025;-56
2022/06/10 00:54:27;;;;;;;4.32;2.85;;;486.60;2380.80;;;;;;5072905;28;20028;-55
2022/06/10 00:56:55;;;;;;;3.45;2.70;;;486.60;2380.80;;;;;;5072524;28;20142;-55
2022/06/10 00:59:24;;;;;;;4.50;3.33;;;486.60;2380.80;;;;;;5072283;28;20101;-56
2022/06/10 01:01:54;;;;;;;5.57;3.00;;;486.60;2380.80;;;;;;5072459;28;20032;-56
2022/06/10 01:04:20;;;;;;;5.78;3.05;;;486.50;2380.80;;;;;;5072473;28;20021;-56
2022/06/10 01:06:45;;;;;;;4.57;2.92;;;486.50;2380.80;;;;;;5072764;28;20104;-55
2022/06/10 01:09:12;;;;;;;5.20;3.08;;;486.60;2380.80;;;;;;5072254;28;20524;-56
2022/06/10 01:12:15;;;;;;;5.25;3.65;;;486.60;2380.80;;;;;;5072479;28;20479;-55
2022/06/10 01:14:40;;;;;;;4.32;3.08;;;486.50;2380.80;;;;;;5072126;28;20024;-56
2022/06/10 01:17:32;;;;;;;5.82;3.38;;;486.40;2380.80;;;;;;5072582;28;20035;-55
2022/06/10 01:20:27;;;;;;;5.65;3.50;;;486.60;2380.80;;;;;;5067669;28;20040;-56
2022/06/10 01:23:20;;;;;;;5.22;3.70;;;486.60;2380.80;;;;;;5071968;28;20036;-55
2022/06/10 01:26:23;;;;;;;5.80;3.97;;;486.60;2380.80;;;;;;5072302;28;20048;-55
2022/06/10 01:29:07;;;;;;;9.57;4.43;;;486.50;2380.80;;;;;;5071918;28;20506;-56
2022/06/10 01:31:42;;;;;;;4.97;4.00;;;486.50;2073.60;;;;;;5071855;28;20040;-55
2022/06/10 01:34:33;;;;;;;7.20;4.20;;;486.50;2022.40;;;;;;5072131;28;20382;-56
2022/06/10 01:37:08;;;;;;;9.23;4.70;;;486.60;2304.00;;;;;;5071785;28;20054;-56
2022/06/10 01:39:45;;;;;;;6.03;4.25;;;486.60;2380.80;;;;;;5071931;28;20032;-55
2022/06/10 01:42:14;;;;;;;7.75;4.10;;;486.50;2380.80;;;;;;5069921;28;20402;-55
2022/06/10 01:45:02;;;;;;;7.63;3.90;;;486.50;2380.80;;;;;;5071460;28;20025;-56
2022/06/10 01:48:09;;;;;;;5.95;4.25;;;486.60;2380.80;;;;;;5071521;28;20028;-55
2022/06/10 01:50:40;;;;;;;6.32;3.83;;;486.60;2380.80;;;;;;4970217;28;20050;-57
2022/06/10 01:53:20;;;;;;;7.22;5.20;;;486.70;2380.80;;;;;;4970836;28;20047;-55
2022/06/10 01:55:52;;;;;;;7.75;4.05;;;486.70;2380.80;;;;;;4970918;28;20034;-55
2022/06/10 01:58:40;;;;;;;7.82;5.10;;;486.70;2380.80;;;;;;4970380;28;20046;-56
2022/06/10 02:01:12;;;;;;;6.05;4.32;;;486.80;2380.80;;;;;;4970546;28;20051;-56
2022/06/10 02:03:59;;;;;;;5.70;4.60;;;486.80;2380.80;;;;;;4970438;28;20535;-56
2022/06/10 02:06:33;;;;;;;7.72;4.88;;;486.80;2380.80;;;;;;4970537;28;20037;-55
2022/06/10 02:09:11;;;;;;;6.53;3.92;;;486.80;2380.80;;;;;;4970511;28;20101;-56
2022/06/10 02:11:42;;;;;;;7.40;4.82;;;486.70;2380.80;;;;;;4970551;28;20102;-56
2022/06/10 02:14:16;;;;;;;6.95;4.32;;;486.80;2380.80;;;;;;4970299;28;20763;-55
2022/06/10 02:16:47;;;;;;;6.32;4.43;;;486.80;2380.80;;;;;;4970175;28;20438;-56
2022/06/10 02:19:19;;;;;;;6.72;5.45;;;486.80;2380.80;;;;;;4970055;28;20568;-54
2022/06/10 02:21:50;;;;;;;8.27;5.07;;;486.70;2380.80;;;;;;4970114;28;20078;-55
2022/06/10 02:24:25;;;;;;;6.30;4.95;;;486.70;2380.80;;;;;;4970281;28;20035;-55
2022/06/10 02:26:54;;;;;;;9.38;6.68;;;486.70;2380.80;;;;;;4999248;28;20115;-54
2022/06/10 02:29:32;;;;;;;7.53;5.07;;;486.80;2380.80;;;;;;5070489;28;20052;-55
2022/06/10 02:32:00;;;;;;;8.48;5.78;;;486.70;2380.80;;;;;;5070664;28;20111;-56
2022/06/10 02:34:27;;;;;;;8.70;7.00;;;486.60;2380.80;;;;;;5070798;28;20025;-55
2022/06/10 02:37:05;;;;;;;8.95;6.00;;;486.60;2380.80;;;;;;5070667;28;20120;-55
2022/06/10 02:39:51;;;;;;;9.95;6.70;;;486.60;2380.80;;;;;;5070692;28;20055;-54
2022/06/10 02:42:23;;;;;;;9.65;6.63;;;486.60;2380.80;;;;;;5070589;28;20033;-55
2022/06/10 02:45:06;;;;;;;12.45;6.50;;;486.60;2380.80;;;;;;5070451;28;20021;-56
2022/06/10 02:47:40;;;;;;;11.20;7.45;;;486.50;2380.80;;;;;;5070586;28;20554;-55
2022/06/10 02:50:07;;;;;;;10.90;7.47;;;486.60;2380.80;;;;;;5070663;28;20503;-55
2022/06/10 02:52:35;;;;;;;13.05;8.52;;;486.50;2380.80;;;;;;5070521;28;20024;-55
2022/06/10 02:55:03;;;;;;;11.80;7.88;;;486.50;2380.80;;;;;;5070560;28;20023;-56
2022/06/10 03:03:34;;;;;;;11.55;8.45;;;486.50;2278.40;;;;;;5070315;28;20043;-55
2022/06/10 03:06:05;;;;;;;13.20;8.00;;;486.50;2380.80;;;;;;4969347;28;20058;-56
2022/06/10 03:08:38;;;;;;;12.27;8.15;;;486.60;2380.80;;;;;;4969332;28;20133;-56
2022/06/10 03:11:22;;;;;;;14.05;8.05;;;486.60;2380.80;;;;;;4969901;28;20035;-55
2022/06/10 03:14:07;;;;;;;11.07;7.97;;;486.70;2380.80;;;;;;4969570;28;20034;-55
2022/06/10 03:16:32;;;;;;;12.90;9.10;;;486.70;2380.80;;;;;;4969314;28;20038;-55
2022/06/10 03:19:22;;;;;;;11.88;9.00;;;486.70;2380.80;;;;;;4969310;28;20031;-55
2022/06/10 03:22:08;;;;;;;13.43;8.55;;;486.70;2380.80;;;;;;4969148;28;20166;-55
2022/06/10 03:24:40;;;;;;;12.95;8.55;;;486.80;2380.80;;;;;;4969516;28;20390;-56
2022/06/10 03:27:11;;;;;;;14.23;9.37;;;486.70;2304.00;;;;;;4985550;28;20458;-55
2022/06/10 03:29:47;;;;;;;13.35;9.77;;;486.70;2380.80;;;;;;4969457;28;20046;-55
2022/06/10 03:32:24;;;;;;;14.20;8.20;;;486.80;2380.80;;;;;;4969207;28;20030;-55
2022/06/10 03:34:57;;;;;;;13.27;8.43;;;486.80;2380.80;;;;;;4968929;28;20027;-55
2022/06/10 03:37:24;;;;;;;13.57;8.73;;;486.90;2380.80;;;;;;4968875;28;20081;-55
2022/06/10 03:39:52;;;;;;;13.57;9.18;;;486.80;2380.80;;;;;;4969201;28;20118;-55
2022/06/10 03:42:20;;;;;;;12.35;8.57;;;486.90;2380.80;;;;;;4997207;28;20044;-54
2022/06/10 03:44:49;;;;;;;14.38;9.20;;;486.90;2380.80;;;;;;5069858;28;20108;-55
2022/06/10 03:47:21;;;;;;;13.07;8.60;;;486.80;2380.80;;;;;;5069875;28;20025;-55
2022/06/10 03:49:55;;;;;;;22.25;10.05;;;486.80;2380.80;;;;;;5070008;28;20433;-55
2022/06/10 03:52:25;;;;;;;16.20;9.68;;;486.90;2380.80;;;;;;5069496;28;20063;-55
2022/06/10 03:54:50;;;;;;;14.27;9.93;;;486.90;2380.80;;;;;;5069492;28;20444;-56
2022/06/10 03:57:17;;;;;;;16.23;10.35;;;486.90;2380.80;;;;;;5069698;28;20052;-55
2022/06/10 03:59:47;;;;;;;13.75;9.75;;;486.80;2048.00;;;;;;5069794;28;20048;-56
2022/06/10 04:02:13;;;;;;;15.90;10.93;;;486.90;2380.80;;;;;;5069934;28;20060;-56
2022/06/10 04:04:39;;;;;;;17.33;10.82;;;486.90;2380.80;;;;;;5069657;28;20053;-56
2022/06/10 04:07:06;;;;;;;15.82;11.05;;;486.90;2380.80;;;;;;5069886;28;20115;-55
2022/06/10 04:09:32;;;;;;;16.90;11.52;;;486.90;2380.80;;;;;;5069990;28;20096;-55
2022/06/10 04:11:58;;;;;;;18.77;11.45;;;487.00;2380.80;;;;;;5070223;28;20909;-56
2022/06/10 04:14:24;;;;;;;20.50;11.93;;;487.00;2380.80;;;;;;5073659;28;20028;-55
2022/06/10 04:16:50;;;;;;;16.83;10.95;;;487.00;2380.80;;;;;;5073422;28;20024;-56
2022/06/10 04:19:16;;;;;;;19.55;13.27;;;487.00;2380.80;;;;;;5073289;28;20028;-55
2022/06/10 04:21:42;;;;;;;20.40;12.70;;;487.00;2380.80;;;;;;5073132;28;20033;-55
2022/06/10 04:24:08;;;;;;;19.83;13.20;;;487.00;2380.80;;;;;;5073311;28;20036;-55
2022/06/10 04:26:34;;;;;;;17.70;11.15;;;487.00;2380.80;;;;;;5073644;28;20050;-55
2022/06/10 04:29:00;;;;;;;19.13;12.43;;;487.00;2380.80;;;;;;5073124;28;20029;-55
2022/06/10 04:31:25;;;;;;;21.33;13.40;;;487.00;2380.80;;;;;;5073194;28;20085;-55
2022/06/10 04:33:51;;;;;;;20.73;13.13;;;486.90;2380.80;;;;;;5072976;28;20103;-53
2022/06/10 04:36:19;;;;;;;19.25;12.88;;;486.90;2048.00;;;;;;5073250;28;20112;-55
2022/06/10 04:38:45;;;;;;;22.50;13.80;;;486.90;2380.80;;;;;;5073120;28;20534;-56
2022/06/10 04:41:12;;;;;;;22.02;13.48;;;487.00;2380.80;;;;;;5072909;28;20032;-55
2022/06/10 04:43:38;;;;;;;25.95;13.13;;;487.00;2380.80;;;;;;5073095;28;20107;-56
2022/06/10 04:46:05;;;;;;;18.85;11.68;;;487.10;2380.80;;;;;;5072942;28;20023;-56
2022/06/10 04:48:32;;;;;;;19.88;12.50;;;487.10;2380.80;;;;;;5072700;28;20025;-54
2022/06/10 04:50:58;;;;;;;17.15;12.70;;;487.10;2380.80;;;;;;5072972;28;20134;-55
2022/06/10 04:53:24;;;;;;;16.83;13.02;;;487.10;2380.80;;;;;;5073062;28;20383;-55
2022/06/10 04:55:50;;;;;;;17.60;13.38;;;487.00;2380.80;;;;;;5072798;28;20020;-56
2022/06/10 04:58:16;;;;;;;23.08;15.10;;;486.90;2380.80;;;;;;5072524;28;20445;-55
2022/06/10 05:00:47;;;;;;;17.17;13.02;;;487.10;2380.80;;;;;;5072572;28;20028;-56
2022/06/10 05:03:15;;;;;;;20.27;13.63;;;487.10;2380.80;;;;;;5072487;28;20028;-56
2022/06/10 05:05:42;;;;;;;19.70;12.77;;;512.00;2380.80;;;;;;5072202;28;20111;-55
2022/06/10 05:08:11;;;;;;;20.00;12.48;;;512.20;2380.80;;;;;;5072377;28;20031;-56
2022/06/10 05:10:37;;;;;;;21.02;11.60;;;512.30;2380.80;;;;;;5072606;28;20021;-55
2022/06/10 05:13:03;;;;;;;15.25;10.98;;;512.40;2380.80;;;;;;5072340;28;20028;-55
2022/06/10 05:15:29;;;;;;;19.30;11.48;;;512.70;2380.80;;;;;;5072227;28;20028;-57
2022/06/10 05:17:57;;;;;;;18.55;12.82;;;512.80;2380.80;;;;;;5072424;28;20108;-56
2022/06/10 05:20:26;;;;;;;18.50;11.35;;;512.70;2380.80;;;;;;5072086;28;20082;-55
2022/06/10 05:22:52;;;;;;;17.65;11.40;;;512.70;2380.80;;;;;;5072070;28;20037;-54
2022/06/10 05:25:18;;;;;;;16.25;11.35;;;512.80;2380.80;;;;;;5071085;28;20039;-55
2022/06/10 05:27:45;;;;;;;16.05;11.23;;;512.80;2380.80;;;;;;5072143;28;20036;-56
2022/06/10 05:30:22;;;;;;;15.80;10.95;;;537.60;2406.40;;;;;;5071859;28;20024;-56
2022/06/10 05:32:48;;;;;;;17.33;10.35;;;537.90;2406.40;;;;;;5072143;28;20039;-57
2022/06/10 05:35:15;;;;;;;14.73;10.15;;;538.00;2406.40;;;;;;5071961;28;20025;-58
2022/06/10 05:37:41;;;;;;;15.10;10.63;;;538.30;2406.40;;;;;;5071746;28;20039;-55
2022/06/10 05:40:08;;;;;;;20.58;12.38;;;538.40;2406.40;;;;;;5072143;28;20102;-55
2022/06/10 05:42:34;;;;;;;16.63;11.00;;;538.40;2406.40;;;;;;5071772;28;20547;-61
2022/06/10 05:44:59;;;;;;;15.18;10.25;;;538.10;2406.40;;;;;;5071593;28;20024;-61
2022/06/10 05:47:29;;;;;;;16.17;10.10;;;538.00;2406.40;;;;;;5071917;28;20115;-60
2022/06/10 05:49:58;;;;;;;15.35;10.27;;;537.90;2406.40;;;;;;5071827;28;20052;-60
2022/06/10 05:52:26;;;;;;;16.50;10.95;;;537.80;2406.40;;;;;;5071409;28;20029;-57
2022/06/10 05:54:54;;;;;;;19.67;13.65;;;537.80;2406.40;;;;;;5071466;28;20021;-60
2022/06/10 05:57:20;;;;;;;17.08;11.60;;;537.60;2406.40;;;;;;5071340;28;20032;-59
2022/06/10 05:59:52;;;;;;;16.90;12.82;;;537.60;2406.40;;;;;;5071475;28;20045;-61
2022/06/10 06:02:20;;;;;;;15.55;12.55;;;537.60;2406.40;;;;;;5071495;28;20394;-55
2022/06/10 06:04:46;;;;;;;19.95;12.93;;;537.60;2406.40;;;;;;5071545;28;20116;-62
2022/06/10 06:07:21;;;;;;;16.42;11.82;;;537.60;2406.40;;;;;;5071339;28;20028;-62
2022/06/10 06:09:48;;;;;;;23.50;12.95;;;537.70;2406.40;;;;;;5071344;28;20111;-61
2022/06/10 06:12:13;;;;;;;21.48;13.48;;;537.80;2406.40;;;;;;5071253;28;20081;-55
2022/06/10 06:14:39;;;;;;;22.13;13.38;;;538.00;2406.40;;;;;;5071144;28;20024;-55
2022/06/10 06:17:06;;;;;;;19.38;14.05;;;538.10;2406.40;;;;;;5071134;28;20063;-55
2022/06/10 06:19:33;;;;;;;17.98;11.82;;;538.20;2406.40;;;;;;5071038;28;20399;-61
2022/06/10 06:21:59;;;;;;;19.05;12.43;;;538.40;2406.40;;;;;;5070845;28;20089;-55
2022/06/10 06:24:26;;;;;;;22.20;13.10;;;538.50;2406.40;;;;;;5071138;28;20020;-61
2022/06/10 06:26:52;;;;;;;22.33;13.10;;;563.30;2432.00;;;;;;5070779;28;20029;-61
2022/06/10 06:29:19;;;;;;;16.92;11.90;;;563.60;2432.00;;;;;;5071017;28;20025;-55
2022/06/10 06:31:45;;;;;;;18.17;13.00;;;563.80;2432.00;;;;;;5070788;28;20478;-61
2022/06/10 06:34:11;;;;;;;18.50;12.85;;;563.80;2432.00;;;;;;5070687;28;20037;-60
2022/06/10 06:36:45;;;;;;;19.58;13.02;;;564.10;2432.00;;;;;;5070316;28;20129;-62
2022/06/10 06:39:13;;;;;;;20.77;14.20;;;564.10;2432.00;;;;;;5070722;28;20027;-63
2022/06/10 06:41:39;;;;;;;19.13;13.65;;;564.10;2432.00;;;;;;5070568;28;20028;-55
2022/06/10 06:44:07;;;;;;;22.83;14.27;;;589.00;2432.00;;;;;;5053130;28;20383;-54
2022/06/10 06:46:36;;;;;;;15.90;12.35;;;589.00;2432.00;;;;;;5070443;28;20024;-64
2022/06/10 06:49:05;;;;;;;21.13;15.88;;;589.10;2432.00;;;;;;5070447;28;20501;-62
2022/06/10 06:51:32;;;;;;;21.42;13.88;;;589.10;2432.00;;;;;;5070403;28;20100;-62
2022/06/10 06:53:59;;;;;;;18.13;13.30;;;589.00;2432.00;;;;;;5070560;28;20553;-61
2022/06/10 06:56:26;;;;;;;21.10;14.55;;;588.80;2432.00;;;;;;5070640;28;20036;-58
2022/06/10 06:58:51;;;;;;;22.42;14.55;;;564.00;2432.00;;;;;;5069906;28;20044;-59
2022/06/10 07:01:17;;;;;;;25.35;14.82;;;564.10;2432.00;;;;;;5070395;28;20398;-57
2022/06/10 07:03:43;;;;;;;18.52;14.10;;;588.80;2432.00;;;;;;5070152;28;20033;-62
2022/06/10 07:06:10;;;;;;;26.95;15.73;;;589.10;2432.00;;;;;;5070447;28;20084;-57
2022/06/10 07:08:37;;;;;;;19.08;14.55;;;589.30;2432.00;;;;;;5052035;28;20033;-62
2022/06/10 07:11:04;;;;;;;20.85;13.93;;;589.30;2432.00;;;;;;5070118;28;20104;-58
2022/06/10 07:13:30;;;;;;;22.55;15.40;;;589.20;2432.00;;;;;;5070095;28;20032;-58
2022/06/10 07:15:58;;;;;;;25.75;16.38;;;589.50;2432.00;;;;;;5070458;28;20017;-60
2022/06/10 07:18:24;;;;;;;21.52;15.07;;;589.60;2432.00;;;;;;5070194;28;20490;-61
2022/06/10 07:20:49;;;;;;;20.83;15.75;;;614.40;2432.00;;;;;;5069957;28;20020;-57
2022/06/10 07:23:16;;;;;;;21.05;15.25;;;614.70;2432.00;;;;;;5069999;28;20410;-62
2022/06/10 07:25:42;;;;;;;18.70;13.02;;;666.00;2432.00;;;;;;5070072;28;20020;-58
2022/06/10 07:28:11;;;;;;;22.92;15.13;;;666.20;2432.00;;;;;;5070127;28;20519;-63
2022/06/10 07:30:38;;;;;;;20.40;15.40;;;666.20;2432.00;;;;;;5070145;28;20056;-55
2022/06/10 07:33:05;;;;;;;20.15;13.88;;;666.00;2432.00;;;;;;5070246;28;20100;-57
2022/06/10 07:35:31;;;;;;;19.40;13.93;;;665.80;2432.00;;;;;;5069834;28;20020;-56
2022/06/10 07:38:00;;;;;;;22.95;14.68;;;666.00;2432.00;;;;;;5069707;28;20023;-62
2022/06/10 07:43:18;;;;;;;23.92;17.25;;;665.90;2432.00;;;;;;5069914;28;20441;-59
2022/06/10 07:45:44;;;;;;;19.25;16.50;;;640.70;2432.00;;;;;;5069930;28;20025;-62
2022/06/10 07:48:13;;;;;;;25.45;17.30;;;640.50;2432.00;;;;;;5071957;28;20082;-60
2022/06/10 07:50:41;;;;;;;19.90;15.25;;;640.10;2432.00;;;;;;5073905;28;20077;-56
2022/06/10 07:53:08;;;;;;;19.13;14.48;;;615.30;2432.00;;;;;;5073894;28;20367;-55
2022/06/10 07:55:34;;;;;;;25.13;16.13;;;614.80;2432.00;;;;;;5073845;28;20029;-59
2022/06/10 07:58:00;;;;;;;20.95;15.10;;;614.80;2432.00;;;;;;5073528;28;20048;-58
2022/06/10 08:00:26;;;;;;;19.92;13.77;;;614.70;2432.00;;;;;;5073971;28;20433;-61
2022/06/10 08:02:52;;;;;;;20.08;14.13;;;614.50;2432.00;;;;;;5073730;28;20033;-61
2022/06/10 08:05:19;;;;;;;19.98;15.00;;;614.70;2432.00;;;;;;5073808;28;20025;-61
2022/06/10 08:07:45;;;;;;;20.30;13.45;;;614.50;2432.00;;;;;;5055837;28;20035;-60
2022/06/10 08:10:41;;;;;;;20.25;13.02;;;614.50;2432.00;;;;;;5073461;28;20074;-55
2022/06/10 08:13:07;;;;;;;16.08;12.70;;;589.60;2432.00;;;;;;4992169;28;20038;-63
2022/06/10 08:15:34;;;;;;;20.42;14.15;;;614.40;2432.00;;;;;;4992032;28;20027;-61
2022/06/10 08:18:00;;;;;;;19.58;13.32;;;589.60;2432.00;;;;;;4991955;28;20124;-62
2022/06/10 08:23:21;;;;;;;15.48;12.02;;;589.70;2432.00;;;;;;4991678;28;20520;-62
2022/06/10 08:25:48;;;;;;;16.55;12.70;;;614.50;2432.00;;;;;;4991979;28;20105;-64
2022/06/10 08:28:14;;;;;;;15.88;11.05;;;614.50;2432.00;;;;;;4991550;28;20121;-64
2022/06/10 08:30:40;;;;;;;15.73;11.57;;;614.60;2432.00;;;;;;4991697;28;20114;-55
2022/06/10 08:33:06;;;;;;;22.20;13.32;;;614.50;2432.00;;;;;;4991839;28;20517;-63
2022/06/10 08:35:33;;;;;;;17.50;12.45;;;589.70;2432.00;;;;;;4991166;28;20065;-56
2022/06/10 08:38:00;;;;;;;18.55;13.60;;;589.20;2432.00;;;;;;4991179;28;20033;-65
2022/06/10 08:40:56;;;;;;;15.85;12.10;;;589.40;2432.00;;;;;;4991401;28;20113;-58
2022/06/10 08:43:53;;;;;;;18.40;12.85;;;589.40;2432.00;;;;;;4991293;28;20129;-54
2022/06/10 08:46:19;;;;;;;15.18;12.20;;;588.90;2432.00;;;;;;4952119;29;20158;-56
2022/06/10 08:49:01;;;;;;;16.20;11.85;;;589.70;2432.00;;;;;;4956236;28;20130;-54
2022/06/10 08:51:32;;;;;;;15.07;12.70;;;614.70;2432.00;;;;;;4967262;28;20035;-54
2022/06/10 08:54:12;;;;;;;16.75;12.90;;;614.90;2432.00;;;;;;4971395;28;20026;-57
2022/06/10 08:56:46;;;;;;;16.10;13.00;;;614.80;2432.00;;;;;;4971849;28;20045;-58
2022/06/10 08:59:27;;;;;;;18.15;14.40;;;614.70;2432.00;;;;;;4971164;28;20449;-59
2022/06/10 09:02:06;;;;;;;19.67;13.63;;;614.80;2432.00;;;;;;4971454;28;20038;-57
2022/06/10 09:04:41;;;;;;;15.48;11.90;;;614.90;2432.00;;;;;;4971780;28;20043;-59
2022/06/10 09:07:12;;;;;;;18.85;14.60;;;615.20;2432.00;;;;;;4971749;28;20132;-61
2022/06/10 09:09:41;;;;;;;18.23;13.73;;;640.00;2432.00;;;;;;4971650;28;20046;-60
2022/06/10 09:12:33;;;;;;;17.90;14.98;;;615.30;2432.00;;;;;;4971620;28;20496;-59
2022/06/10 09:15:03;;;;;;;19.63;13.82;;;615.20;2432.00;;;;;;4969685;28;20034;-61
2022/06/10 09:17:40;;;;;;;20.65;15.52;;;615.30;2432.00;;;;;;4971636;28;20109;-56
2022/06/10 09:20:26;;;;;;;17.17;14.02;;;615.10;2432.00;;;;;;4971327;28;20375;-55
2022/06/10 09:23:04;;;;;;;18.55;12.68;;;615.10;2432.00;;;;;;5016740;28;20078;-59
2022/06/10 09:25:33;;;;;;;20.73;15.27;;;615.10;2432.00;;;;;;5052186;28;20110;-60
2022/06/10 09:28:00;;;;;;;19.33;15.50;;;615.10;2432.00;;;;;;5052013;28;20025;-62
2022/06/10 09:30:58;;;;;;;19.30;15.20;;;615.10;2432.00;;;;;;5051995;28;20036;-59
2022/06/10 09:33:33;;;;;;;20.77;13.95;;;615.10;2432.00;;;;;;5051783;28;20029;-61
2022/06/10 09:36:04;;;;;;;16.70;14.23;;;615.00;2432.00;;;;;;5052089;28;20565;-60
2022/06/10 09:38:45;;;;;;;23.00;14.70;;;615.10;2432.00;;;;;;5051639;28;20060;-60
2022/06/10 09:41:34;;;;;;;16.15;13.45;;;615.00;2432.00;;;;;;5051432;28;20056;-57
2022/06/10 09:44:11;;;;;;;20.33;15.70;;;615.00;2432.00;;;;;;5051775;28;20099;-63
2022/06/10 09:47:11;;;;;;;17.15;13.75;;;615.00;2432.00;;;;;;5033928;28;20020;-55
2022/06/10 09:49:39;;;;;;;28.15;16.75;;;614.90;2432.00;;;;;;5050092;28;20031;-62
2022/06/10 09:52:39;;;;;;;20.33;15.68;;;614.80;2432.00;;;;;;5049978;28;20434;-56
2022/06/10 09:55:24;;;;;;;19.08;14.93;;;614.80;2432.00;;;;;;4968798;28;20050;-55
2022/06/10 09:58:08;;;;;;;18.98;14.55;;;614.70;2432.00;;;;;;4968299;28;20042;-56
2022/06/10 10:00:56;;;;;;;18.30;15.23;;;614.60;2432.00;;;;;;4968400;28;20125;-61
2022/06/10 10:03:41;;;;;;;20.85;14.90;;;614.50;2432.00;;;;;;4968454;28;20042;-62
2022/06/10 10:06:41;;;;;;;18.27;14.52;;;614.60;2432.00;;;;;;4968598;28;20039;-60
2022/06/10 10:09:10;;;;;;;18.83;14.85;;;614.50;2432.00;;;;;;4968552;28;20030;-67
2022/06/10 10:12:04;;;;;;;21.13;15.13;;;614.50;2432.00;;;;;;4967955;28;20097;-61
2022/06/10 10:14:45;;;;;;;18.80;14.65;;;614.70;2432.00;;;;;;4967854;28;20142;-55
2022/06/10 10:17:35;;;;;;;21.10;15.13;;;615.00;2432.00;;;;;;4968256;28;20026;-60
2022/06/10 10:20:28;;;;;;;18.52;15.95;;;615.30;2432.00;;;;;;4968128;28;20086;-55
2022/06/10 10:23:11;;;;;;;17.67;14.68;;;640.70;2432.00;;;;;;4968234;28;20057;-64
2022/06/10 10:25:38;;;;;;;;;;;640.90;2432.00;;;;;;4968593;28;20719;-58
2022/06/10 10:28:17;;;;;;;18.35;14.15;;;640.90;2432.00;;;;;;4967582;28;20005;-63
2022/06/10 10:31:11;;;;;;;21.63;16.25;;;640.60;2432.00;;;;;;4998562;28;20040;-66
2022/06/10 10:33:37;;;;;;;18.92;16.02;;;640.70;2432.00;;;;;;5068973;28;20830;-64
2022/06/10 10:36:15;;;;;;;17.00;13.98;;;665.60;2432.00;;;;;;5069087;28;20067;-65
2022/06/10 10:38:44;;;;;;;18.98;13.18;;;665.90;2432.00;;;;;;5068073;28;20020;-63
2022/06/10 10:41:17;;;;;;;15.40;13.05;;;665.90;2432.00;;;;;;5069247;28;20027;-63
2022/06/10 10:43:46;;;;;;;18.63;14.23;;;666.30;2432.00;;;;;;5069031;28;20047;-63
2022/06/10 10:46:32;;;;;;;17.20;14.73;;;691.20;2432.00;;;;;;5066403;28;20031;-65
2022/06/10 10:49:01;;;;;;;15.93;13.00;;;691.80;2432.00;;;;;;5067365;28;20121;-64
2022/06/10 10:51:40;;;;;;;16.15;12.30;;;692.10;2432.00;;;;;;5069430;28;20020;-57
2022/06/10 10:54:16;;;;;;;15.80;12.80;;;716.90;2432.00;;;;;;5065667;28;20025;-60
2022/06/10 10:56:47;;;;;;;22.15;13.50;;;716.80;2432.00;;;;;;5068049;28;20028;-65
2022/06/10 10:59:32;;;;;;;16.63;12.75;;;716.80;2432.00;;;;;;5069546;28;20047;-65
2022/06/10 11:01:58;;;;;;;13.05;11.10;;;691.80;2432.00;;;;;;5049476;28;20137;-65
2022/06/10 11:04:29;;;;;;;15.98;12.27;;;691.70;2406.40;;;;;;5070331;28;20031;-64
2022/06/10 11:07:19;;;;;;;13.75;12.30;;;691.90;2432.00;;;;;;5070343;28;20048;-64
2022/06/10 11:09:49;;;;;;;14.73;12.23;;;691.80;2432.00;;;;;;4969735;28;20174;-64
2022/06/10 11:12:19;;;;;;;13.38;9.77;;;691.90;2432.00;;;;;;4969641;28;20089;-64
2022/06/10 11:14:56;;;;;;;12.38;9.27;;;691.90;2432.00;;;;;;4969706;28;20042;-64
2022/06/10 11:17:23;;;;;;;11.45;8.57;;;692.10;2406.40;;;;;;4969159;28;20425;-64
2022/06/10 11:19:57;;;;;;;10.48;7.88;;;717.00;2380.80;;;;;;4969156;28;20470;-64
2022/06/10 11:22:36;;;;;;;9.70;8.50;;;716.90;2329.60;;;;;;4968186;28;20043;-55
2022/06/10 11:25:17;;;;;;;10.23;9.23;;;717.10;2176.00;;;;;;4969170;28;20486;-61
2022/06/10 11:27:48;;;;;;;8.43;7.40;;;717.20;2201.60;;;;;;4968997;28;20084;-64
2022/06/10 11:30:14;;;;;;;10.98;9.13;;;716.90;2099.20;;;;;;4969200;28;20474;-65
2022/06/10 11:32:48;;;;;;;9.68;8.68;;;692.00;2150.40;;;;;;4968792;28;20117;-56
2022/06/10 11:35:31;;;;;;;10.38;9.07;;;717.00;2304.00;;;;;;4969246;28;20058;-65
2022/06/10 11:38:22;;;;;;;18.67;9.93;;;716.90;2355.20;;;;;;4969188;28;20533;-65
2022/06/10 11:40:48;;;;;;;13.20;9.65;;;717.00;2329.60;;;;;;4969207;28;20026;-64
2022/06/10 11:43:18;;;;;;;12.05;9.35;;;717.20;2304.00;;;;;;4968970;28;20049;-65
2022/06/10 11:45:47;;;;;;;13.23;9.27;;;717.50;2329.60;;;;;;4979006;28;20417;-65
2022/06/10 11:48:43;;;;;;;9.77;8.77;;;717.10;2304.00;;;;;;5069738;28;20027;-64
2022/06/10 11:51:47;;;;;;;10.20;8.65;;;717.10;2304.00;;;;;;4968702;28;20078;-58
2022/06/10 11:54:19;;;;;;;9.60;8.00;;;692.10;2252.80;;;;;;4911374;29;20028;-64
2022/06/10 11:59:59;;;;;;;9.88;7.50;;;716.80;2227.20;;;;;;4908991;29;20143;-56
2022/06/10 12:02:32;;;;;;;9.43;7.75;;;692.10;2227.20;;;;;;4909886;29;20067;-64
2022/06/10 12:05:29;;;;;;;11.88;7.22;;;691.90;2201.60;;;;;;4909857;29;20032;-63
2022/06/10 12:08:13;;;;;;;9.07;7.20;;;691.80;2176.00;;;;;;4909771;29;20037;-55
2022/06/10 12:11:06;;;;;;;9.32;8.00;;;691.90;2201.60;;;;;;4909226;29;20403;-61
2022/06/10 12:13:37;;;;;;;9.27;7.63;;;691.80;2278.40;;;;;;4890670;29;20050;-64
2022/06/10 12:16:04;;;;;;;10.80;8.60;;;691.90;2201.60;;;;;;4890422;29;20421;-63
2022/06/10 12:18:35;;;;;;;9.50;7.93;;;716.80;2278.40;;;;;;4890602;29;20140;-62
2022/06/10 12:21:04;;;;;;;9.52;7.47;;;717.00;2252.80;;;;;;4890489;29;20436;-56
2022/06/10 12:23:35;;;;;;;9.85;7.88;;;717.20;2252.80;;;;;;4890009;29;20036;-66
2022/06/10 12:26:21;;;;;;;9.35;8.40;;;717.00;2304.00;;;;;;4890551;29;20392;-58
2022/06/10 12:29:13;;;;;;;19.02;8.35;;;692.10;2304.00;;;;;;4964551;28;20469;-64
2022/06/10 12:32:18;;;;;;;14.43;9.95;;;691.80;2278.40;;;;;;4947302;29;20031;-59
2022/06/10 12:35:04;;;;;;;9.85;8.65;;;691.20;2304.00;;;;;;4931621;29;20035;-58
2022/06/10 12:37:48;;;;;;;10.65;7.88;;;691.20;2329.60;;;;;;4953097;29;20091;-55
2022/06/10 12:40:49;;;;;;;9.30;7.82;;;691.60;2329.60;;;;;;4952887;29;20031;-64
2022/06/10 12:43:31;;;;;;;8.40;7.60;;;691.70;2329.60;;;;;;4914553;29;20048;-65
2022/06/10 12:46:03;;;;;;;8.55;7.65;;;691.80;2355.20;;;;;;4914656;29;20123;-62
2022/06/10 12:48:33;;;;;;;10.18;8.52;;;691.80;2304.00;;;;;;4914402;29;20420;-56